METAR stanice u blizini

 

LYBE - Beograd / Surčin, Srbija
Ažurirano: 17/07/2019 12:30
Vedro
Vedro
 Pravac vetra SZ
Vetar: SZ 13 km/h
Temperatura: 26°C
Tačka rose: 13°C
Vlažnost: 45%
Pritisak: 1013 hPa
Pregled: Vedro
Vidljivost: greater than 10 km
2019/07/17 10:30 LYBE 171030Z 32007KT 290V350 CAVOK 26/13 Q1013 NOSIG
LYBT - Beograd / Batajnica, Srbija
Ažurirano: 17/07/2019 12:30
Few Clouds
Few Clouds
 Pravac vetra ZSZ
Vetar: ZSZ 11 km/h
Temperatura: 25°C
Tačka rose: 14°C
Vlažnost: 51%
Pritisak: 1012 hPa
Oblaci: Few Clouds
Vidljivost: 10 km
Cloud details: Few Clouds 1006 m
2019/07/17 10:30 LYBT 171030Z 29006KT 240V340 9999 FEW033 25/14 Q1012 NOSIG
LYVR - Vršac, Srbija
Ažurirano: 17/07/2019 12:00
Few Clouds
Few Clouds
 Pravac vetra SZ
Vetar: SZ 17 km/h
Temperatura: 25°C
Tačka rose: 10°C
Vlažnost: 39%
Pritisak: 1012 hPa
Oblaci: Few Clouds
Vidljivost: 10 km
Cloud details: Few Clouds 1219 m
2019/07/17 10:00 LYVR 171000Z 31009KT 9999 FEW040 25/10 Q1012 NOSIG
 
LYKV - Lađevci, Srbija
Ažurirano: 17/07/2019 12:30
Partly Cloudy
Partly Cloudy
 Pravac vetra ZSZ
Vetar: ZSZ 9 km/h
Temperatura: 25°C
Tačka rose: 12°C
Vlažnost: 44%
Pritisak: 1013 hPa
Oblaci: Partly Cloudy
Vidljivost: 10 km
Cloud details: Partly Cloudy 1219 m
2019/07/17 10:30 LYKV 171030Z 29005KT 200V350 9999 SCT040 25/12 Q1013 NOSIG
LYNI - Niš, Srbija
Ažurirano: 17/07/2019 12:30
Few Clouds
Few Clouds
 Pravac vetra SSZ
Vetar: SSZ 17 km/h
Temperatura: 27°C
Tačka rose: 9°C
Vlažnost: 32%
Pritisak: 1012 hPa
Oblaci: Few Clouds
Vidljivost: 10 km
Cloud details: Few Clouds 1128 m
2019/07/17 10:30 LYNI 171030Z 33009KT 270V020 9999 FEW037 27/09 Q1012 NOSIG
BKPR - Priština, Srbija
Ažurirano: 17/07/2019 12:30
Few Clouds
Few Clouds
 Pravac vetra SSI
Vetar: SSI 22 km/h
Temperatura: 24°C
Tačka rose: 5°C
Vlažnost: 29%
Pritisak: 1014 hPa
Oblaci: Few Clouds
Vidljivost: 10 km
Cloud details: Few Clouds 1524 m
2019/07/17 10:30 BKPR 171030Z 03012KT 9999 FEW050 24/05 Q1014 NOSIG
 
LHPP - Pecs / Pogany, Hungary
Ažurirano: 17/07/2019 12:15
Vedro
Vedro
 Pravac vetra SZ
Vetar: SZ 15 km/h
Temperatura: 25°C
Tačka rose: 11°C
Vlažnost: 42%
Pritisak: 1013 hPa
Pregled: Vedro
Vidljivost: greater than 10 km
2019/07/17 10:15 LHPP 171015Z 32008KT CAVOK 25/11 Q1013
LHUD - Szeged, Hungary
Ažurirano: 04/07/2019 01:45
NOT Current
Vedro
Vedro
 Pravac vetra S
Vetar: S 7 km/h
Temperatura: 18°C
Tačka rose: 13°C
Vlažnost: 73%
Pritisak: 1019 hPa
Pregled: Vedro
Vidljivost: greater than 10 km
2019/07/03 23:45 LHUD 032345Z 35004KT CAVOK 18/13 Q1019
LRTR - Timisoara, Romania
Ažurirano: 17/07/2019 12:30
Vedro
Vedro
 Pravac vetra SZ
Vetar: SZ 15 km/h
Temperatura: 25°C
Tačka rose: 12°C
Vlažnost: 44%
Pritisak: 1011 hPa
Pregled: Vedro
Vidljivost: greater than 10 km
2019/07/17 10:30 LRTR 171030Z 31008KT 270V340 CAVOK 25/12 Q1011
 
LRCV - Craiova, Romania
Ažurirano: 17/07/2019 12:30
Partly Cloudy
Partly Cloudy
 Pravac vetra Z
Vetar: Z 11 km/h
Temperatura: 25°C
Tačka rose: 11°C
Vlažnost: 42%
Pritisak: 1010 hPa
Oblaci: Partly Cloudy
Vidljivost: 10 km
Cloud details: Partly Cloudy 1463 m
2019/07/17 10:30 LRCV 171030Z 27006KT 240V300 9999 SCT048 25/11 Q1010
LBSF - Sofia, Bulgaria
Ažurirano: 17/07/2019 12:30
Partly Cloudy
Partly Cloudy
 Pravac vetra varies
Vetar: varies 6 km/h
Temperatura: 23°C
Tačka rose: 11°C
Vlažnost: 47%
Pritisak: 1012 hPa
Oblaci: Partly Cloudy
Vidljivost: 10 km
Cloud details: Partly Cloudy 1585 m
2019/07/17 10:30 LBSF 171030Z VRB03KT 9999 SCT052 23/11 Q1012 NOSIG
LWSK - Skoplje, Makedonija
Ažurirano: 17/07/2019 12:30
Vedro
Vedro
 Pravac vetra SSZ
Vetar: SSZ 20 km/h
Temperatura: 27°C
Tačka rose: 8°C
Vlažnost: 30%
Pritisak: 1011 hPa
Pregled: Vedro
Vidljivost: greater than 10 km
2019/07/17 10:30 LWSK 171030Z 33011KT 290V010 CAVOK 27/08 Q1011 NOSIG
 
LYPG - Podgorica, Crna Gora
Ažurirano: 17/07/2019 12:30
Vedro
Vedro
 Pravac vetra S
Vetar: S 11 km/h
Temperatura: 30°C
Tačka rose: 5°C
Vlažnost: 20%
Pritisak: 1010 hPa
Pregled: Vedro
Vidljivost: greater than 10 km
2019/07/17 10:30 LYPG 171030Z 35006KT 260V060 CAVOK 30/05 Q1010 NOSIG
LQSA - Sarajevo, Bosna i Hercegovina
Ažurirano: 17/07/2019 12:30
Partly Cloudy
Partly Cloudy
 Pravac vetra Z
Vetar: Z 7 km/h
Temperatura: 23°C
Tačka rose: 12°C
Vlažnost: 50%
Pritisak: 1015 hPa
Oblaci: Partly Cloudy
Vidljivost: 10 km
Cloud details: Partly Cloudy 1524 m
2019/07/17 10:30 LQSA 171030Z 27004KT 220V320 9999 SCT050 23/12 Q1015 NOSIG
LDOS - Osijek, Hrvatksa
Ažurirano: 17/07/2019 12:30
Few Clouds
Few Clouds
 Pravac vetra SZ
Vetar: SZ 11 km/h
Temperatura: 26°C
Tačka rose: 12°C
Vlažnost: 42%
Pritisak: 1013 hPa
Oblaci: Few Clouds
Vidljivost: 10 km
Cloud details: Few Clouds 1311 m
2019/07/17 10:30 LDOS 171030Z 32006KT 250V020 9999 FEW043 26/12 Q1013